Davenport, WA (99122)

3:10 AM PDT on July 31, 2014 (GMT -0700)
Four Mound Prairie (KWAREARD2) Elev 2452 ft | 47.78 °N, 117.73 °W | Change Station

Current weather conditions updated 7 seconds ago

Clear
Clear
67.5 °F
Feels Like 67.5 °F
N
5.4
Wind Variable Wind from South
Gusts 5.4 mph

Today is forecast to be Cooler than yesterday.

Today
High -- | Low -- °F
--% Chance of Precip.
Yesterday
High -- | Low -- °F
Precip. -- in
5:28 AM 8:28 PM
Waxing Crescent, 17% visible
Pressure 29.99 in
Visibility 10.0 miles
Clouds Clear
Dew Point 36 °F
Humidity 31%
Rainfall 0.00 in
Snow Depth Not available.
UV 0 out of 12
Pollen 6.50 out of 12
PM2.5 Moderate
Flu Activity Not available.
METAR KSKA 310858Z AUTO 08003KT 10SM CLR 21/02 A3004 RMK AO2 SLP153 T02100020 53003 $

More Conditions Fewer Conditions

Pressure 29.99 in
Visibility 10.0 miles
Clouds Clear
Dew Point 36 °F
Humidity 31%
Rainfall 0.00 in
Snow Depth Not available.
UV 0 out of 12
Pollen 6.50 out of 12
PM2.5 Moderate
Flu Activity Not available.
METAR KSKA 310858Z AUTO 08003KT 10SM CLR 21/02 A3004 RMK AO2 SLP153 T02100020 53003 $

More Conditions Fewer Conditions

10-Day Weather Forecast

Almanac

Astronomy

Jul. 31, 2014 Rise Set
Actual Time 5:28 AM PDT 8:28 PM PDT
Civil Twilight 4:52 AM PDT 9:04 PM PDT
Nautical Twilight 4:05 AM PDT 9:50 PM PDT
Astronomical Twilight 3:08 AM PDT 10:47 PM PDT
Moon 10:23 AM PDT 10:18 PM PDT
Length of Visible Light 16h 11m
Length of Day
14h 59m
Tomorrow will be 2m 40s shorter.
Waxing Crescent, 17% of the Moon is Illuminated
Today
Waxing Crescent
Aug 3
First Quarter
Aug 10
Full
Aug 17
Last Quarter
Aug 25
New

Today's Extremes

State Highs State Lows

Community

WunderPhotos

Upload Photos

1,739,284 photos uploaded!

Nearby

Air Quality

  Air Quality AQ Index Pollutant
Yesterday Good
PM10
Yesterday Good
OZONE
Current Moderate
PM2.5
Thursday Good
PM10
Thursday Moderate
OZONE

Snow Depth

Station Depth Elevation
Quartz Peak 1 in 4700 ft
Moses Mountain 1 in 5300 ft
Sentinel Butte 1 in 4920 ft
Bunchgrass Meadow 0 in 5000 ft
Trough 0 in 5300 ft

Earthquake Activity

City Distance Mag. Time & Date
No recent earthquake activity has been reported nearby.
Minimum magnitude displayed is 2.5.

Coastal Water Temperatures

Place Temperature
No Stations Reporting

Nearby Weather Stations

Station Location Temp. Heat Index Dew Point Humidity Wind Precip. Elev Updated Type
Davenport, WA, Davenport, WA 67.3 °F - 39 °F 35% NW  at  0.0 mph - / hr 2375 ft 11:47 PM PDT Normal
Four Mound Prairie, Reardan, WA 67.5 °F - 36 °F 31% South  at  5.4 mph 0.00 in / hr 2452 ft 3:10 AM PDT Rapid Fire
MesoWest Spokane NWS , Spokane, WA 65 °F - 41 °F 42% South  at  6 mph 0.00 in / hr 2395 ft 2:02 AM PDT MADIS
Seven Bays, Seven Bays, WA 77.4 °F 78 °F 49 °F 37% ENE  at  2.0 mph 0.00 in / hr 1332 ft 11:50 PM PDT Rapid Fire

Show More Stations Show Fewer Stations